Accueil
METAR-TAF:

METAR-TAF

Aéroports :

Aéroport de Saint-Pierre Pierrefonds

Saint-Pierre, Réunion

latitude: 21-20S, longitude: 055-29E, altitude: 52 m

Observation

Le bulletin a été fait il y a 39 minutes, à 10:30 UTC
Vent 18 kt de est/sud-est
Température 26°C
Humidité 61%
Pression 1021 hPa
Visibilité 10 km ou plus
pas de nuages en-dessous de 1500 mètres et pas de cumulonimbus.

METAR: FMEP 201030Z AUTO 12018KT CAVOK 26/18 Q1021 NOSIG

Heure: 15:09 (11:09 UTC)

Prévision

Le bulletin a été fait il y a 3 heures et 9 minutes, à 08:00 UTC
Prévision valable du 20 à 09 UTC au 20 à 18 UTC
Vent 20 kt de est/sud-est
Visibilité 10 km ou plus
pas de nuages en-dessous de 1500 mètres et pas de cumulonimbus.

TAF: FMEP 200800Z 2009/2018 12020KT CAVOK

Observations et prévisions météorologiques de plus de 4000 aéroports (messages METAR et TAF).

Les stations disponibles sont représentées par des disques jaunes et rouges sur la carte.

Passer la souris dessus pour voir le nom de la station.

Cliquer dessus pour voir les observations et prévisions météorologiques.

Pour changer de carte: cliquez sur les boutons verts avec une croix noire pour zoomer, sur le bouton vert avec un tiret pour effectuer un zoom arrière, ou sur les flèches vertes pour les cartes adjacentes.


METAR-TAF: